createdAt,value
2017-12-12T00:01:41.392Z,980.50
2017-12-12T00:02:41.432Z,980.53
2017-12-12T00:04:35.912Z,980.65
2017-12-12T00:05:35.889Z,980.66
2017-12-12T00:07:31.912Z,980.69
2017-12-12T00:08:31.920Z,980.71
2017-12-12T00:10:26.416Z,980.83
2017-12-12T00:11:26.393Z,980.85
2017-12-12T00:13:20.896Z,980.88
2017-12-12T00:14:20.864Z,980.87
2017-12-12T00:16:15.321Z,980.99
2017-12-12T00:17:15.363Z,980.93
2017-12-12T00:19:09.777Z,980.95
2017-12-12T00:20:09.843Z,981.02
2017-12-12T00:22:04.353Z,981.05
2017-12-12T00:23:04.361Z,981.12
2017-12-12T00:24:58.798Z,981.17
2017-12-12T00:25:58.897Z,981.14
2017-12-12T00:27:53.194Z,981.22
2017-12-12T00:28:53.258Z,981.41
2017-12-12T00:30:49.290Z,981.43
2017-12-12T00:31:49.314Z,981.49
2017-12-12T00:33:45.138Z,981.55
2017-12-12T00:34:45.241Z,981.58
2017-12-12T00:36:41.138Z,981.64
2017-12-12T00:37:41.153Z,981.61
2017-12-12T00:39:35.658Z,981.66
2017-12-12T00:40:35.642Z,981.73
2017-12-12T00:42:30.098Z,981.80
2017-12-12T00:43:30.130Z,981.87
2017-12-12T00:45:24.626Z,981.92
2017-12-12T00:46:24.650Z,982.03
2017-12-12T00:48:19.050Z,982.05
2017-12-12T00:49:19.066Z,982.05
2017-12-12T00:51:12.514Z,982.19
2017-12-12T00:52:12.666Z,982.18
2017-12-12T00:54:07.090Z,982.29
2017-12-12T00:55:07.050Z,982.36
2017-12-12T00:57:01.563Z,982.43
2017-12-12T00:58:01.538Z,982.43
2017-12-12T00:59:55.988Z,982.56
2017-12-12T01:00:55.994Z,982.57
2017-12-12T01:02:50.499Z,982.69
2017-12-12T01:03:50.516Z,982.68
2017-12-12T01:05:44.884Z,982.80
2017-12-12T01:06:44.979Z,982.83
2017-12-12T01:08:39.403Z,982.93
2017-12-12T01:09:39.443Z,982.91
2017-12-12T01:11:33.939Z,982.94
2017-12-12T01:12:33.875Z,982.95
2017-12-12T01:14:28.333Z,983.02
2017-12-12T01:15:28.436Z,983.13
2017-12-12T01:17:22.820Z,983.18
2017-12-12T01:18:22.819Z,983.26
2017-12-12T01:20:18.812Z,983.36
2017-12-12T01:21:19.171Z,983.51
2017-12-12T01:23:13.260Z,983.55
2017-12-12T01:24:13.308Z,983.54
2017-12-12T01:26:10.237Z,983.61
2017-12-12T01:27:10.251Z,983.64
2017-12-12T01:29:04.713Z,983.70
2017-12-12T01:30:04.721Z,983.77
2017-12-12T01:32:00.682Z,983.90
2017-12-12T01:33:00.994Z,983.93
2017-12-12T01:34:55.153Z,984.03
2017-12-12T01:35:55.194Z,984.05
2017-12-12T01:37:49.633Z,984.14
2017-12-12T01:38:49.730Z,984.25
2017-12-12T01:40:44.146Z,984.31
2017-12-12T01:41:44.161Z,984.34
2017-12-12T01:43:38.610Z,984.41
2017-12-12T01:44:38.626Z,984.41
2017-12-12T01:46:33.162Z,984.49
2017-12-12T01:47:33.114Z,984.50
2017-12-12T01:49:29.066Z,984.53
2017-12-12T01:50:29.122Z,984.54
2017-12-12T01:52:23.738Z,984.58
2017-12-12T01:53:23.698Z,984.56
2017-12-12T01:55:18.057Z,984.54
2017-12-12T01:56:18.066Z,984.62
2017-12-12T01:58:12.546Z,984.70
2017-12-12T01:59:12.667Z,984.74
2017-12-12T02:01:07.185Z,984.78
2017-12-12T02:02:07.010Z,984.88
2017-12-12T02:04:03.066Z,984.97
2017-12-12T02:05:02.995Z,985.05
2017-12-12T02:06:57.435Z,985.07
2017-12-12T02:07:57.451Z,985.09
2017-12-12T02:09:53.667Z,985.15
2017-12-12T02:10:53.443Z,985.15
2017-12-12T02:12:47.898Z,985.26
2017-12-12T02:13:48.019Z,985.30
2017-12-12T02:15:44.011Z,985.36
2017-12-12T02:16:44.059Z,985.42
2017-12-12T02:18:38.339Z,985.55
2017-12-12T02:19:38.539Z,985.54
2017-12-12T02:21:31.851Z,985.63
2017-12-12T02:22:31.917Z,985.67
2017-12-12T02:24:25.323Z,985.78
2017-12-12T02:25:25.355Z,985.76
2017-12-12T02:27:20.020Z,985.82
2017-12-12T02:28:19.827Z,985.83
2017-12-12T02:30:13.403Z,985.93
2017-12-12T02:31:13.468Z,985.98
2017-12-12T02:33:08.164Z,986.06
2017-12-12T02:34:07.885Z,986.09
2017-12-12T02:36:02.322Z,986.15
2017-12-12T02:37:02.337Z,986.20
2017-12-12T02:38:58.345Z,986.26
2017-12-12T02:39:58.305Z,986.34
2017-12-12T02:41:52.770Z,986.40
2017-12-12T02:42:52.793Z,986.38
2017-12-12T02:44:48.784Z,986.44
2017-12-12T02:45:48.944Z,986.50
2017-12-12T02:47:45.033Z,986.55
2017-12-12T02:48:44.784Z,986.55
2017-12-12T02:50:39.209Z,986.65
2017-12-12T02:51:39.235Z,986.67
2017-12-12T02:53:33.953Z,986.66
2017-12-12T02:54:33.704Z,986.69
2017-12-12T02:56:28.171Z,986.72
2017-12-12T02:57:28.249Z,986.77
2017-12-12T02:59:24.129Z,986.83
2017-12-12T03:00:24.242Z,986.89
2017-12-12T03:02:20.132Z,987.00
2017-12-12T03:03:20.296Z,987.11
2017-12-12T03:05:14.570Z,987.24
2017-12-12T03:06:14.777Z,987.30
2017-12-12T03:08:09.129Z,987.32
2017-12-12T03:09:09.089Z,987.34
2017-12-12T03:11:03.530Z,987.40
2017-12-12T03:12:03.537Z,987.37
2017-12-12T03:13:59.513Z,987.41
2017-12-12T03:14:59.530Z,987.45
2017-12-12T03:16:54.018Z,987.50
2017-12-12T03:17:54.018Z,987.51
2017-12-12T03:19:49.954Z,987.67
2017-12-12T03:20:49.978Z,987.64
2017-12-12T03:22:44.562Z,987.70
2017-12-12T03:23:44.425Z,987.72
2017-12-12T03:25:38.898Z,987.85
2017-12-12T03:26:38.922Z,987.87
2017-12-12T03:28:33.498Z,988.01
2017-12-12T03:29:33.461Z,988.06
2017-12-12T03:31:29.380Z,988.12
2017-12-12T03:32:29.378Z,988.19
2017-12-12T03:34:23.851Z,988.28
2017-12-12T03:35:23.970Z,988.30
2017-12-12T03:37:19.843Z,988.43
2017-12-12T03:38:19.869Z,988.50
2017-12-12T03:40:14.340Z,988.55
2017-12-12T03:41:14.315Z,988.62
2017-12-12T03:43:07.787Z,988.73
2017-12-12T03:44:07.819Z,988.71
2017-12-12T03:46:03.779Z,988.82
2017-12-12T03:47:03.867Z,988.86
2017-12-12T03:48:58.290Z,988.92
2017-12-12T03:49:58.269Z,989.07
2017-12-12T03:51:52.875Z,989.08
2017-12-12T03:52:52.875Z,989.10
2017-12-12T03:54:48.716Z,989.16
2017-12-12T03:55:48.715Z,989.16
2017-12-12T03:57:44.884Z,989.28
2017-12-12T03:58:44.788Z,989.34
2017-12-12T04:00:39.148Z,989.37
2017-12-12T04:01:39.172Z,989.43
2017-12-12T04:03:33.727Z,989.46
2017-12-12T04:04:33.731Z,989.46
2017-12-12T04:06:28.116Z,989.54
2017-12-12T04:07:28.292Z,989.61
2017-12-12T04:09:24.266Z,989.61
2017-12-12T04:10:24.228Z,989.70
2017-12-12T04:12:20.180Z,989.73
2017-12-12T04:13:20.092Z,989.71
2017-12-12T04:15:16.140Z,989.79
2017-12-12T04:16:16.164Z,989.85
2017-12-12T04:18:10.684Z,989.95
2017-12-12T04:19:10.724Z,989.97
2017-12-12T04:21:06.540Z,990.08
2017-12-12T04:22:06.548Z,990.09
2017-12-12T04:24:02.742Z,990.20
2017-12-12T04:25:02.525Z,990.25
2017-12-12T04:26:58.589Z,990.28
2017-12-12T04:27:58.541Z,990.28
2017-12-12T04:29:52.000Z,990.36
2017-12-12T04:30:51.965Z,990.37
2017-12-12T04:32:46.509Z,990.46
2017-12-12T04:33:46.445Z,990.53
2017-12-12T04:35:42.461Z,990.58
2017-12-12T04:36:42.430Z,990.68
2017-12-12T04:38:37.069Z,990.76
2017-12-12T04:39:36.877Z,990.78
2017-12-12T04:41:31.381Z,990.85
2017-12-12T04:42:31.421Z,990.89
2017-12-12T04:44:25.917Z,990.92
2017-12-12T04:45:25.917Z,990.97
2017-12-12T04:47:21.998Z,990.98
2017-12-12T04:48:21.813Z,991.01
2017-12-12T04:50:17.958Z,991.15
2017-12-12T04:51:17.765Z,991.21
2017-12-12T04:53:12.215Z,991.24
2017-12-12T04:54:12.246Z,991.38
2017-12-12T04:56:06.806Z,991.39
2017-12-12T04:57:06.709Z,991.39
2017-12-12T04:59:01.166Z,991.45
2017-12-12T05:00:01.246Z,991.45
2017-12-12T05:01:55.750Z,991.53
2017-12-12T05:02:55.726Z,991.54
2017-12-12T05:04:49.223Z,991.52
2017-12-12T05:05:49.150Z,991.52
2017-12-12T05:07:42.694Z,991.63
2017-12-12T05:08:42.750Z,991.64
2017-12-12T05:10:37.310Z,991.64
2017-12-12T05:11:37.295Z,991.71
2017-12-12T05:13:31.682Z,991.75
2017-12-12T05:14:31.687Z,991.74
2017-12-12T05:16:26.199Z,991.83
2017-12-12T05:17:26.225Z,991.90
2017-12-12T05:19:20.750Z,991.91
2017-12-12T05:20:20.655Z,992.00
2017-12-12T05:22:16.614Z,992.05
2017-12-12T05:23:16.647Z,992.05
2017-12-12T05:25:11.135Z,992.09
2017-12-12T05:26:11.199Z,992.06
2017-12-12T05:28:07.104Z,992.10
2017-12-12T05:29:07.194Z,992.10
2017-12-12T05:31:01.665Z,992.23
2017-12-12T05:32:01.595Z,992.20
2017-12-12T05:33:57.538Z,992.30
2017-12-12T05:34:57.688Z,992.29
2017-12-12T05:36:52.103Z,992.35
2017-12-12T05:37:52.079Z,992.36
2017-12-12T05:39:46.528Z,992.39
2017-12-12T05:40:46.557Z,992.41
2017-12-12T05:42:41.024Z,992.53
2017-12-12T05:43:41.043Z,992.49
2017-12-12T05:45:35.462Z,992.63
2017-12-12T05:46:35.575Z,992.65
2017-12-12T05:48:30.004Z,992.72
2017-12-12T05:49:30.023Z,992.73
2017-12-12T05:51:24.448Z,992.79
2017-12-12T05:52:24.760Z,992.83
2017-12-12T05:54:18.945Z,992.86
2017-12-12T05:55:18.962Z,992.86
2017-12-12T05:57:13.409Z,992.99
2017-12-12T05:58:13.454Z,993.03
2017-12-12T06:00:07.940Z,993.13
2017-12-12T06:01:07.959Z,993.15
2017-12-12T06:03:03.944Z,993.18
2017-12-12T06:04:04.514Z,993.22
2017-12-12T06:06:00.021Z,993.25
2017-12-12T06:07:00.213Z,993.25
2017-12-12T06:08:54.405Z,993.32
2017-12-12T06:09:54.453Z,993.32
2017-12-12T06:11:50.425Z,993.38
2017-12-12T06:12:50.436Z,993.44
2017-12-12T06:14:46.365Z,993.55
2017-12-12T06:15:46.386Z,993.51
2017-12-12T06:17:42.355Z,993.55
2017-12-12T06:18:42.510Z,993.54
2017-12-12T06:20:38.974Z,993.61
2017-12-12T06:21:38.342Z,993.67
2017-12-12T06:23:32.902Z,993.77
2017-12-12T06:24:33.026Z,993.75
2017-12-12T06:26:27.278Z,993.81
2017-12-12T06:27:27.319Z,993.85
2017-12-12T06:29:23.326Z,993.86
2017-12-12T06:30:23.310Z,993.87
2017-12-12T06:32:17.759Z,993.87
2017-12-12T06:33:17.791Z,993.91
2017-12-12T06:35:12.463Z,994.05
2017-12-12T06:36:12.271Z,994.06
2017-12-12T06:38:07.224Z,994.15
2017-12-12T06:39:07.247Z,994.25
2017-12-12T06:41:01.847Z,994.25
2017-12-12T06:42:01.743Z,994.30
2017-12-12T06:43:56.295Z,994.39
2017-12-12T06:44:56.207Z,994.42
2017-12-12T06:46:50.655Z,994.52
2017-12-12T06:47:50.679Z,994.49
2017-12-12T06:49:44.336Z,994.57
2017-12-12T06:50:44.319Z,994.55
2017-12-12T06:52:38.634Z,994.58
2017-12-12T06:53:38.704Z,994.57
2017-12-12T06:55:34.736Z,994.66
2017-12-12T06:56:34.680Z,994.64
2017-12-12T06:58:30.623Z,994.70
2017-12-12T06:59:30.800Z,994.76
2017-12-12T07:01:25.072Z,994.85
2017-12-12T07:02:25.256Z,994.88
2017-12-12T07:04:19.632Z,994.96
2017-12-12T07:05:19.752Z,994.98
2017-12-12T07:07:15.536Z,995.02
2017-12-12T07:08:15.898Z,995.04
2017-12-12T07:10:11.560Z,995.08
2017-12-12T07:11:11.880Z,995.15
2017-12-12T07:13:06.248Z,995.17
2017-12-12T07:14:06.122Z,995.21
2017-12-12T07:16:02.280Z,995.29
2017-12-12T07:17:01.985Z,995.36
2017-12-12T07:18:56.665Z,995.41
2017-12-12T07:19:56.561Z,995.45
2017-12-12T07:21:50.914Z,995.50
2017-12-12T07:22:51.113Z,995.44
2017-12-12T07:24:45.539Z,995.57
2017-12-12T07:25:45.401Z,995.59
2017-12-12T07:27:40.049Z,995.67
2017-12-12T07:28:39.897Z,995.67
2017-12-12T07:30:36.041Z,995.74
2017-12-12T07:31:36.017Z,995.71
2017-12-12T07:33:31.809Z,995.81
2017-12-12T07:34:31.869Z,995.79
2017-12-12T07:36:26.322Z,995.89
2017-12-12T07:37:26.330Z,995.87
2017-12-12T07:39:21.003Z,996.01
2017-12-12T07:40:21.146Z,996.05
2017-12-12T07:42:15.242Z,996.05
2017-12-12T07:43:15.410Z,996.11
2017-12-12T07:45:11.451Z,996.18
2017-12-12T07:46:11.355Z,996.16
2017-12-12T07:48:07.194Z,996.19
2017-12-12T07:49:07.309Z,996.14
2017-12-12T07:51:03.403Z,996.18
2017-12-12T07:52:03.219Z,996.20
2017-12-12T07:53:57.843Z,996.27
2017-12-12T07:54:57.819Z,996.24
2017-12-12T07:56:53.612Z,996.32
2017-12-12T07:57:53.667Z,996.38
2017-12-12T07:59:48.452Z,996.39
2017-12-12T08:00:48.148Z,996.45
2017-12-12T08:02:42.860Z,996.56
2017-12-12T08:03:42.604Z,996.58
2017-12-12T08:05:37.356Z,996.68
2017-12-12T08:06:37.075Z,996.70
2017-12-12T08:08:31.972Z,996.71
2017-12-12T08:09:31.556Z,996.76
2017-12-12T08:11:27.709Z,996.78
2017-12-12T08:12:27.540Z,996.81
2017-12-12T08:14:23.524Z,996.91
2017-12-12T08:15:23.509Z,996.91
2017-12-12T08:17:18.044Z,996.95
2017-12-12T08:18:18.221Z,996.91
2017-12-12T08:20:12.876Z,996.92
2017-12-12T08:21:12.510Z,996.95
2017-12-12T08:23:08.686Z,997.06
2017-12-12T08:24:08.535Z,997.07
2017-12-12T08:26:03.260Z,997.12
2017-12-12T08:27:02.982Z,997.15
2017-12-12T08:28:58.933Z,997.23
2017-12-12T08:29:58.886Z,997.21
2017-12-12T08:31:54.878Z,997.26
2017-12-12T08:32:54.909Z,997.32
2017-12-12T08:34:49.319Z,997.38
2017-12-12T08:35:49.364Z,997.43
2017-12-12T08:37:43.830Z,997.43
2017-12-12T08:38:43.869Z,997.40
2017-12-12T08:40:39.774Z,997.48
2017-12-12T08:41:39.813Z,997.43
2017-12-12T08:43:34.269Z,997.40
2017-12-12T08:44:34.301Z,997.43
2017-12-12T08:46:30.246Z,997.55
2017-12-12T08:47:30.453Z,997.69
2017-12-12T08:49:24.733Z,997.72
2017-12-12T08:50:25.160Z,997.81
2017-12-12T08:52:19.214Z,997.83
2017-12-12T08:53:19.420Z,997.86
2017-12-12T08:55:15.406Z,997.98
2017-12-12T08:56:15.550Z,997.96
2017-12-12T08:58:09.974Z,998.04
2017-12-12T08:59:09.678Z,998.04
2017-12-12T09:01:04.366Z,998.13
2017-12-12T09:02:04.406Z,998.16
2017-12-12T09:03:58.850Z,998.16
2017-12-12T09:04:58.774Z,998.18
2017-12-12T09:06:53.079Z,998.22
2017-12-12T09:07:53.378Z,998.25
2017-12-12T09:09:47.837Z,998.27
2017-12-12T09:10:47.605Z,998.30
2017-12-12T09:12:42.045Z,998.34
2017-12-12T09:13:42.093Z,998.41
2017-12-12T09:15:38.014Z,998.45
2017-12-12T09:16:38.342Z,998.42
2017-12-12T09:18:32.526Z,998.49
2017-12-12T09:19:32.749Z,998.48
2017-12-12T09:21:28.590Z,998.52
2017-12-12T09:22:28.518Z,998.59
2017-12-12T09:24:23.062Z,998.65
2017-12-12T09:25:22.974Z,998.70
2017-12-12T09:27:17.472Z,998.71
2017-12-12T09:28:17.446Z,998.77
2017-12-12T09:30:12.078Z,998.83
2017-12-12T09:31:11.982Z,998.83
2017-12-12T09:33:06.390Z,998.91
2017-12-12T09:34:06.574Z,998.90
2017-12-12T09:36:02.670Z,998.89
2017-12-12T09:37:02.383Z,998.93
2017-12-12T09:38:57.079Z,999.01
2017-12-12T09:39:56.902Z,999.08
2017-12-12T09:41:53.007Z,999.18
2017-12-12T09:42:53.063Z,999.22
2017-12-12T09:44:47.359Z,999.30
2017-12-12T09:45:47.391Z,999.31
2017-12-12T09:47:43.279Z,999.35
2017-12-12T09:48:43.319Z,999.39
2017-12-12T09:50:39.575Z,999.41
2017-12-12T09:51:39.463Z,999.51
2017-12-12T09:53:35.352Z,999.57
2017-12-12T09:54:35.400Z,999.57
2017-12-12T09:56:31.303Z,999.63
2017-12-12T09:57:31.306Z,999.59
2017-12-12T09:59:25.688Z,999.60
2017-12-12T10:00:25.824Z,999.72
2017-12-12T10:02:21.800Z,999.74
2017-12-12T10:03:21.705Z,999.75
2017-12-12T10:05:16.352Z,999.82
2017-12-12T10:06:16.200Z,999.83
2017-12-12T10:08:12.128Z,999.85
2017-12-12T10:09:12.160Z,999.78
2017-12-12T10:11:06.640Z,999.91
2017-12-12T10:12:06.632Z,999.92
2017-12-12T10:14:01.080Z,999.88
2017-12-12T10:15:01.208Z,999.92
2017-12-12T10:16:57.088Z,999.92
2017-12-12T10:17:57.355Z,999.94
2017-12-12T10:19:51.536Z,999.99
2017-12-12T10:20:51.576Z,999.99
2017-12-12T10:22:47.529Z,1000.10
2017-12-12T10:23:47.579Z,1000.06
2017-12-12T10:25:42.018Z,1000.09
2017-12-12T10:26:42.041Z,1000.14
2017-12-12T10:28:36.521Z,1000.16
2017-12-12T10:29:36.777Z,1000.21
2017-12-12T10:31:32.441Z,1000.24
2017-12-12T10:32:32.608Z,1000.30
2017-12-12T10:34:27.057Z,1000.32
2017-12-12T10:35:27.313Z,1000.31
2017-12-12T10:37:21.409Z,1000.39
2017-12-12T10:38:21.427Z,1000.38
2017-12-12T10:40:16.097Z,1000.40
2017-12-12T10:41:15.986Z,1000.39
2017-12-12T10:43:12.226Z,1000.42
2017-12-12T10:44:11.914Z,1000.46
2017-12-12T10:46:07.858Z,1000.52
2017-12-12T10:47:07.882Z,1000.50
2017-12-12T10:49:02.346Z,1000.54
2017-12-12T10:50:02.370Z,1000.59
2017-12-12T10:51:57.186Z,1000.64
2017-12-12T10:52:56.850Z,1000.60
2017-12-12T10:54:51.290Z,1000.62
2017-12-12T10:55:51.490Z,1000.68
2017-12-12T10:57:45.755Z,1000.69
2017-12-12T10:58:45.810Z,1000.73
2017-12-12T11:00:41.763Z,1000.78
2017-12-12T11:01:41.786Z,1000.79
2017-12-12T11:03:36.218Z,1000.85
2017-12-12T11:04:36.658Z,1000.89
2017-12-12T11:06:29.811Z,1000.88
2017-12-12T11:07:29.779Z,1000.88
2017-12-12T11:09:24.410Z,1000.98
2017-12-12T11:10:24.387Z,1000.99
2017-12-12T11:12:20.675Z,1001.04
2017-12-12T11:13:20.539Z,1001.10
2017-12-12T11:15:13.787Z,1001.17
2017-12-12T11:16:14.770Z,1001.15
2017-12-12T11:18:08.387Z,1001.27
2017-12-12T11:19:08.450Z,1001.27
2017-12-12T11:21:02.803Z,1001.29
2017-12-12T11:22:02.924Z,1001.31
2017-12-12T11:23:56.931Z,1001.38
2017-12-12T11:24:56.475Z,1001.37
2017-12-12T11:26:49.331Z,1001.46
2017-12-12T11:27:49.323Z,1001.47
2017-12-12T11:29:42.284Z,1001.49
2017-12-12T11:30:42.331Z,1001.47
2017-12-12T11:32:38.292Z,1001.54
2017-12-12T11:33:38.419Z,1001.54
2017-12-12T11:35:33.331Z,1001.58
2017-12-12T11:36:33.356Z,1001.56
2017-12-12T11:38:29.540Z,1001.51
2017-12-12T11:39:29.428Z,1001.59
2017-12-12T11:41:23.790Z,1001.64
2017-12-12T11:42:23.996Z,1001.63
2017-12-12T11:44:18.372Z,1001.67
2017-12-12T11:45:18.372Z,1001.72
2017-12-12T11:47:14.285Z,1001.67
2017-12-12T11:48:14.341Z,1001.70
2017-12-12T11:50:08.805Z,1001.77
2017-12-12T11:51:08.837Z,1001.74
2017-12-12T11:53:03.325Z,1001.78
2017-12-12T11:54:03.804Z,1001.75
2017-12-12T11:55:59.525Z,1001.73
2017-12-12T11:56:59.469Z,1001.80
2017-12-12T11:58:53.797Z,1001.87
2017-12-12T11:59:54.244Z,1001.87
2017-12-12T12:01:50.014Z,1001.96
2017-12-12T12:02:49.812Z,1002.03
2017-12-12T12:04:45.909Z,1002.04
2017-12-12T12:05:46.117Z,1001.99
2017-12-12T12:07:42.277Z,1002.02
2017-12-12T12:08:41.830Z,1001.99
2017-12-12T12:10:36.278Z,1001.96
2017-12-12T12:11:36.299Z,1001.98
2017-12-12T12:13:30.035Z,1002.02
2017-12-12T12:14:29.923Z,1002.10
2017-12-12T12:16:22.827Z,1002.14
2017-12-12T12:17:22.859Z,1002.10
2017-12-12T12:19:17.483Z,1002.13
2017-12-12T12:20:17.444Z,1002.13
2017-12-12T12:22:11.794Z,1002.14
2017-12-12T12:25:06.501Z,1002.18
2017-12-12T12:26:06.332Z,1002.21
2017-12-12T12:28:00.831Z,1002.28
2017-12-12T12:29:00.860Z,1002.29
2017-12-12T12:30:55.580Z,1002.29
2017-12-12T12:31:55.564Z,1002.27
2017-12-12T12:33:51.308Z,1002.30
2017-12-12T12:34:52.829Z,1002.33
2017-12-12T12:36:45.788Z,1002.38
2017-12-12T12:37:46.773Z,1002.39
2017-12-12T12:39:40.789Z,1002.43
2017-12-12T12:40:40.477Z,1002.46
2017-12-12T12:42:36.661Z,1002.52
2017-12-12T12:43:36.317Z,1002.53
2017-12-12T12:45:31.205Z,1002.51
2017-12-12T12:46:30.901Z,1002.61
2017-12-12T12:48:24.333Z,1002.57
2017-12-12T12:49:24.133Z,1002.61
2017-12-12T12:51:18.310Z,1002.54
2017-12-12T12:52:20.760Z,1002.54
2017-12-12T12:54:12.021Z,1002.59
2017-12-12T12:55:12.621Z,1002.62
2017-12-12T12:57:08.671Z,1002.63
2017-12-12T12:58:06.341Z,1002.64
2017-12-12T13:00:01.726Z,1002.71
2017-12-12T13:01:01.438Z,1002.67
2017-12-12T13:02:56.798Z,1002.75
2017-12-12T13:05:51.334Z,1002.79
2017-12-12T13:06:51.510Z,1002.78
2017-12-12T13:08:47.534Z,1002.86
2017-12-12T13:09:47.486Z,1002.90
2017-12-12T13:11:42.950Z,1002.89
2017-12-12T13:12:42.119Z,1002.94
2017-12-12T13:14:39.999Z,1002.93
2017-12-12T13:15:37.975Z,1002.90
2017-12-12T13:17:33.471Z,1002.90
2017-12-12T13:18:32.942Z,1002.91
2017-12-12T13:20:30.095Z,1002.94
2017-12-12T13:21:40.199Z,1002.95
2017-12-12T13:23:24.439Z,1002.93
2017-12-12T13:24:24.431Z,1003.01
2017-12-12T13:26:18.967Z,1002.97
2017-12-12T13:27:19.367Z,1002.98
2017-12-12T13:29:24.158Z,1002.97
2017-12-12T13:30:14.967Z,1003.02
2017-12-12T13:32:11.631Z,1003.06
2017-12-12T13:33:10.816Z,1003.11
2017-12-12T13:35:05.583Z,1003.10
2017-12-12T13:36:05.309Z,1003.17
2017-12-12T13:37:59.204Z,1003.14
2017-12-12T13:39:00.181Z,1003.19
2017-12-12T13:41:02.434Z,1003.14
2017-12-12T13:41:52.178Z,1003.20
2017-12-12T13:43:49.474Z,1003.31
2017-12-12T13:44:50.066Z,1003.36
2017-12-12T13:46:54.810Z,1003.40
2017-12-12T13:47:43.882Z,1003.45
2017-12-12T13:49:37.499Z,1003.46
2017-12-12T13:50:38.106Z,1003.52
2017-12-12T13:52:32.946Z,1003.56
2017-12-12T13:53:32.675Z,1003.52
2017-12-12T13:55:25.931Z,1003.51
2017-12-12T13:56:26.003Z,1003.58
2017-12-12T13:58:20.435Z,1003.59
2017-12-12T14:01:19.186Z,1003.74
2017-12-12T14:02:17.426Z,1003.70
2017-12-12T14:04:11.075Z,1003.75
2017-12-12T14:05:11.139Z,1003.74
2017-12-12T14:07:07.004Z,1003.79
2017-12-12T14:08:08.851Z,1003.89
2017-12-12T14:10:02.139Z,1003.93
2017-12-12T14:11:01.827Z,1003.97
2017-12-12T14:12:55.691Z,1004.04
2017-12-12T14:13:55.388Z,1004.03
2017-12-12T14:15:51.468Z,1004.01
2017-12-12T14:16:51.276Z,1004.02
2017-12-12T14:18:47.339Z,1004.09
2017-12-12T14:21:40.851Z,1004.14
2017-12-12T14:22:40.652Z,1004.16
2017-12-12T14:24:33.781Z,1004.14
2017-12-12T14:25:33.708Z,1004.16
2017-12-12T14:27:29.451Z,1004.17
2017-12-12T14:28:30.396Z,1004.16
2017-12-12T14:30:22.756Z,1004.26
2017-12-12T14:31:21.747Z,1004.30
2017-12-12T14:33:18.212Z,1004.35
2017-12-12T14:34:18.118Z,1004.40
2017-12-12T14:36:13.916Z,1004.36
2017-12-12T14:37:13.981Z,1004.37
2017-12-12T14:39:21.324Z,1004.44
2017-12-12T14:40:09.740Z,1004.41
2017-12-12T14:42:03.556Z,1004.37
2017-12-12T14:43:03.620Z,1004.37
2017-12-12T14:44:58.140Z,1004.49
2017-12-12T14:45:58.682Z,1004.50
2017-12-12T14:47:52.237Z,1004.51
2017-12-12T14:48:54.293Z,1004.52
2017-12-12T14:50:47.149Z,1004.54
2017-12-12T14:53:02.606Z,1004.60
2017-12-12T14:54:01.918Z,1004.63
2017-12-12T14:56:09.532Z,1004.67
2017-12-12T14:57:08.540Z,1004.73
2017-12-12T14:59:02.133Z,1004.77
2017-12-12T15:00:02.109Z,1004.79
2017-12-12T15:01:58.357Z,1004.75
2017-12-12T15:02:58.174Z,1004.76
2017-12-12T15:04:53.317Z,1004.93
2017-12-12T15:05:52.829Z,1004.91
2017-12-12T15:07:47.350Z,1004.90
2017-12-12T15:08:47.834Z,1004.92
2017-12-12T15:10:40.470Z,1004.89
2017-12-12T15:11:40.656Z,1004.94
2017-12-12T15:13:34.965Z,1004.96
2017-12-12T15:14:35.222Z,1005.05
2017-12-12T15:16:31.501Z,1005.15
2017-12-12T15:17:29.790Z,1005.12
2017-12-12T15:19:27.232Z,1005.12
2017-12-12T15:20:25.486Z,1005.16
2017-12-12T15:22:22.774Z,1005.19
2017-12-12T15:23:21.398Z,1005.21
2017-12-12T15:25:15.950Z,1005.27
2017-12-12T15:26:15.998Z,1005.27
2017-12-12T15:28:11.502Z,1005.34
2017-12-12T15:29:10.574Z,1005.37
2017-12-12T15:31:05.014Z,1005.40
2017-12-12T15:32:05.126Z,1005.44
2017-12-12T15:33:59.774Z,1005.51
2017-12-12T15:34:59.541Z,1005.55
2017-12-12T15:36:54.357Z,1005.58
2017-12-12T15:37:54.054Z,1005.58
2017-12-12T15:39:48.613Z,1005.61
2017-12-12T15:40:48.517Z,1005.65
2017-12-12T15:42:42.982Z,1005.70
2017-12-12T15:43:42.966Z,1005.77
2017-12-12T15:45:37.757Z,1005.78
2017-12-12T15:46:36.774Z,1005.79
2017-12-12T15:48:32.558Z,1005.89
2017-12-12T15:49:32.429Z,1005.91
2017-12-12T15:51:26.926Z,1005.93
2017-12-12T15:52:27.150Z,1005.97
2017-12-12T15:54:21.646Z,1006.01
2017-12-12T15:55:21.446Z,1006.06
2017-12-12T15:57:16.254Z,1006.07
2017-12-12T15:58:15.870Z,1006.07
2017-12-12T16:00:09.734Z,1006.11
2017-12-12T16:01:11.246Z,1006.13
2017-12-12T16:03:05.511Z,1006.12
2017-12-12T16:04:05.495Z,1006.12
2017-12-12T16:06:00.726Z,1006.16
2017-12-12T16:07:00.471Z,1006.14
2017-12-12T16:08:56.312Z,1006.30
2017-12-12T16:09:55.919Z,1006.29
2017-12-12T16:11:50.470Z,1006.29
2017-12-12T16:12:51.744Z,1006.28
2017-12-12T16:14:46.407Z,1006.33
2017-12-12T16:15:46.417Z,1006.34
2017-12-12T16:17:43.791Z,1006.35
2017-12-12T16:18:42.707Z,1006.32
2017-12-12T16:20:38.702Z,1006.40
2017-12-12T16:21:38.467Z,1006.41
2017-12-12T16:23:32.827Z,1006.46
2017-12-12T16:24:32.922Z,1006.45
2017-12-12T16:26:27.300Z,1006.51
2017-12-12T16:27:29.952Z,1006.53
2017-12-12T16:29:24.767Z,1006.57
2017-12-12T16:30:23.831Z,1006.56
2017-12-12T16:32:16.080Z,1006.64
2017-12-12T16:33:16.006Z,1006.68
2017-12-12T16:35:10.623Z,1006.70
2017-12-12T16:36:11.575Z,1006.68
2017-12-12T16:38:05.135Z,1006.70
2017-12-12T16:39:05.233Z,1006.64
2017-12-12T16:41:01.063Z,1006.69
2017-12-12T16:41:59.567Z,1006.70
2017-12-12T16:43:53.079Z,1006.71
2017-12-12T16:44:53.095Z,1006.75
2017-12-12T16:46:46.295Z,1006.75
2017-12-12T16:47:46.463Z,1006.72
2017-12-12T16:49:54.007Z,1006.75
2017-12-12T16:50:40.855Z,1006.76
2017-12-12T16:52:36.823Z,1006.76
2017-12-12T16:53:36.920Z,1006.76
2017-12-12T16:55:35.888Z,1006.83
2017-12-12T16:56:34.016Z,1006.82
2017-12-12T16:58:28.713Z,1006.90
2017-12-12T16:59:28.352Z,1006.92
2017-12-12T17:01:22.736Z,1006.98
2017-12-12T17:02:23.272Z,1006.97
2017-12-12T17:04:21.920Z,1007.01
2017-12-12T17:05:19.032Z,1007.04
2017-12-12T17:07:16.072Z,1007.01
2017-12-12T17:08:14.961Z,1007.01
2017-12-12T17:10:12.360Z,1007.00
2017-12-12T17:11:09.296Z,1007.00
2017-12-12T17:13:03.680Z,1007.01
2017-12-12T17:14:03.968Z,1007.03
2017-12-12T17:16:00.136Z,1007.10
2017-12-12T17:16:59.216Z,1007.09
2017-12-12T17:18:54.201Z,1007.09
2017-12-12T17:21:48.905Z,1007.19
2017-12-12T17:22:48.816Z,1007.19
2017-12-12T17:24:44.656Z,1007.17
2017-12-12T17:25:44.912Z,1007.23
2017-12-12T17:27:41.049Z,1007.24
2017-12-12T17:28:39.612Z,1007.25
2017-12-12T17:30:33.793Z,1007.25
2017-12-12T17:31:34.289Z,1007.26
2017-12-12T17:33:31.201Z,1007.26
2017-12-12T17:34:29.921Z,1007.26
2017-12-12T17:36:27.569Z,1007.22
2017-12-12T17:37:25.785Z,1007.29
2017-12-12T17:39:20.282Z,1007.28
2017-12-12T17:40:20.274Z,1007.27
2017-12-12T17:42:15.377Z,1007.28
2017-12-12T17:43:15.377Z,1007.31
2017-12-12T17:45:21.721Z,1007.36
2017-12-12T17:46:20.690Z,1007.35
2017-12-12T17:48:15.250Z,1007.40
2017-12-12T17:49:15.554Z,1007.38
2017-12-12T17:51:11.122Z,1007.40
2017-12-12T17:52:11.602Z,1007.42
2017-12-12T17:54:06.082Z,1007.42
2017-12-12T17:55:06.490Z,1007.46
2017-12-12T17:57:00.090Z,1007.47
2017-12-12T17:58:01.498Z,1007.46
2017-12-12T17:59:56.115Z,1007.48
2017-12-12T18:00:56.162Z,1007.48
2017-12-12T18:02:53.993Z,1007.55
2017-12-12T18:03:52.554Z,1007.60
2017-12-12T18:05:46.746Z,1007.59